createdAt,value
2023-05-24T00:01:00.252Z,18.80
2023-05-24T00:04:25.173Z,18.80
2023-05-24T00:07:49.145Z,18.80
2023-05-24T00:11:12.654Z,18.80
2023-05-24T00:14:36.270Z,18.80
2023-05-24T00:18:01.548Z,18.80
2023-05-24T00:21:25.257Z,18.70
2023-05-24T00:24:48.920Z,18.70
2023-05-24T00:28:12.493Z,18.90
2023-05-24T00:31:36.358Z,18.60
2023-05-24T00:35:01.949Z,18.60
2023-05-24T00:38:27.160Z,18.60
2023-05-24T00:41:50.847Z,18.60
2023-05-24T00:45:14.948Z,18.50
2023-05-24T00:48:38.694Z,18.50
2023-05-24T00:52:04.027Z,18.50
2023-05-24T00:55:30.571Z,18.50
2023-05-24T00:58:56.123Z,18.50
2023-05-24T01:02:20.800Z,18.50
2023-05-24T01:05:44.628Z,18.50
2023-05-24T01:09:35.053Z,17.60
2023-05-24T01:13:17.776Z,18.40
2023-05-24T01:16:51.735Z,18.60
2023-05-24T01:20:18.878Z,18.30
2023-05-24T01:24:02.471Z,18.30
2023-05-24T01:27:29.644Z,18.20
2023-05-24T01:30:55.704Z,18.20
2023-05-24T01:34:21.549Z,18.20
2023-05-24T01:37:45.067Z,18.20
2023-05-24T01:41:27.905Z,18.40
2023-05-24T01:45:05.663Z,18.10
2023-05-24T01:48:39.278Z,18.10
2023-05-24T01:52:09.174Z,18.10
2023-05-24T01:55:35.573Z,18.10
2023-05-24T01:59:03.651Z,18.10
2023-05-24T02:02:29.455Z,18.00
2023-05-24T02:05:53.034Z,18.00
2023-05-24T02:09:16.722Z,18.00
2023-05-24T02:12:40.464Z,18.00
2023-05-24T02:16:05.046Z,17.90
2023-05-24T02:19:30.093Z,17.90
2023-05-24T02:22:53.657Z,17.90
2023-05-24T02:26:18.509Z,17.80
2023-05-24T02:29:42.838Z,17.80
2023-05-24T02:33:06.650Z,17.80
2023-05-24T02:36:32.634Z,17.80
2023-05-24T02:39:56.288Z,17.70
2023-05-24T02:43:19.810Z,17.80
2023-05-24T02:46:43.780Z,17.70
2023-05-24T02:50:08.767Z,17.70
2023-05-24T02:53:34.426Z,17.70
2023-05-24T02:56:58.015Z,17.60
2023-05-24T03:00:22.201Z,17.60
2023-05-24T03:03:46.043Z,17.60
2023-05-24T03:07:10.742Z,17.60
2023-05-24T03:10:35.832Z,17.60
2023-05-24T03:13:59.501Z,17.60
2023-05-24T03:17:23.079Z,17.50
2023-05-24T03:20:46.800Z,17.50
2023-05-24T03:24:10.576Z,17.40
2023-05-24T03:27:36.348Z,17.40
2023-05-24T03:31:00.034Z,17.40
2023-05-24T03:34:24.348Z,17.40
2023-05-24T03:37:48.453Z,17.40
2023-05-24T03:41:12.557Z,17.30
2023-05-24T03:44:37.552Z,17.30
2023-05-24T03:48:03.938Z,17.30
2023-05-24T03:51:29.584Z,17.20
2023-05-24T03:54:53.326Z,17.20
2023-05-24T03:58:17.890Z,17.20
2023-05-24T04:01:43.069Z,17.10
2023-05-24T04:05:10.327Z,17.30
2023-05-24T04:08:35.261Z,17.00
2023-05-24T04:11:58.946Z,16.90
2023-05-24T04:15:23.093Z,16.90
2023-05-24T04:18:48.579Z,16.90
2023-05-24T04:22:12.294Z,17.00
2023-05-24T04:25:35.926Z,16.80
2023-05-24T04:29:02.072Z,16.80
2023-05-24T04:32:26.306Z,16.90
2023-05-24T04:35:52.612Z,16.90
2023-05-24T04:39:16.708Z,17.00
2023-05-24T04:42:40.281Z,16.80
2023-05-24T04:46:04.062Z,16.90
2023-05-24T04:49:28.097Z,16.80
2023-05-24T04:52:53.120Z,16.90
2023-05-24T04:56:17.145Z,16.90
2023-05-24T04:59:40.660Z,16.90
2023-05-24T05:03:04.762Z,16.90
2023-05-24T05:06:28.406Z,16.90
2023-05-24T05:09:53.893Z,16.90
2023-05-24T05:13:17.548Z,16.90
2023-05-24T05:16:41.246Z,17.20
2023-05-24T05:20:05.972Z,17.00
2023-05-24T05:23:29.552Z,16.90
2023-05-24T05:26:54.489Z,16.90
2023-05-24T05:30:18.267Z,17.00
2023-05-24T05:33:41.999Z,17.00
2023-05-24T05:37:06.270Z,17.00
2023-05-24T05:40:29.811Z,18.00
2023-05-24T05:43:54.658Z,17.00
2023-05-24T05:47:18.187Z,17.00
2023-05-24T05:50:41.940Z,17.00
2023-05-24T05:54:05.958Z,17.10
2023-05-24T05:57:29.584Z,17.10
2023-05-24T06:00:54.765Z,17.10
2023-05-24T06:04:19.386Z,17.20
2023-05-24T06:07:43.003Z,17.20
2023-05-24T06:11:06.621Z,17.20
2023-05-24T06:14:30.818Z,17.20
2023-05-24T06:17:55.851Z,17.30
2023-05-24T06:21:19.558Z,17.40
2023-05-24T06:24:43.843Z,17.50
2023-05-24T06:28:07.429Z,17.50
2023-05-24T06:31:31.127Z,17.60
2023-05-24T06:34:56.052Z,17.70
2023-05-24T06:38:19.594Z,17.80
2023-05-24T06:41:46.162Z,17.90
2023-05-24T06:45:11.017Z,18.10
2023-05-24T06:48:34.839Z,18.10
2023-05-24T06:51:59.868Z,18.20
2023-05-24T06:55:23.956Z,18.30
2023-05-24T06:58:47.571Z,18.30
2023-05-24T07:02:12.109Z,18.30
2023-05-24T07:05:35.911Z,18.30
2023-05-24T07:09:01.861Z,18.30
2023-05-24T07:12:25.830Z,18.20
2023-05-24T07:15:50.609Z,18.20
2023-05-24T07:19:14.147Z,18.10
2023-05-24T07:22:37.801Z,18.00
2023-05-24T07:26:02.731Z,18.00
2023-05-24T07:29:27.118Z,17.90
2023-05-24T07:32:51.245Z,17.80
2023-05-24T07:36:15.843Z,17.70
2023-05-24T07:39:39.800Z,17.70
2023-05-24T07:43:04.732Z,17.60
2023-05-24T07:46:28.368Z,17.60
2023-05-24T07:49:51.981Z,17.60
2023-05-24T07:53:16.411Z,18.00
2023-05-24T07:56:39.891Z,17.80
2023-05-24T08:00:12.678Z,17.90
2023-05-24T08:03:36.871Z,18.00
2023-05-24T08:07:01.818Z,18.10
2023-05-24T08:10:26.150Z,18.30
2023-05-24T08:13:49.756Z,18.40
2023-05-24T08:17:14.700Z,18.40
2023-05-24T08:20:38.921Z,18.40
2023-05-24T08:24:02.776Z,18.50
2023-05-24T08:27:28.780Z,18.50
2023-05-24T08:30:52.479Z,18.50
2023-05-24T08:34:17.950Z,18.40
2023-05-24T08:37:41.612Z,18.40
2023-05-24T08:41:08.503Z,18.40
2023-05-24T08:44:37.017Z,18.40
2023-05-24T08:48:02.824Z,18.50
2023-05-24T08:51:29.154Z,18.50
2023-05-24T08:54:54.377Z,18.50
2023-05-24T08:58:18.770Z,18.60
2023-05-24T09:01:44.023Z,18.60
2023-05-24T09:05:12.461Z,19.00
2023-05-24T09:08:40.552Z,18.70
2023-05-24T09:12:08.608Z,18.70
2023-05-24T09:15:32.361Z,18.70
2023-05-24T09:18:56.078Z,18.80
2023-05-24T09:22:23.313Z,18.80
2023-05-24T09:25:49.561Z,18.90
2023-05-24T09:29:13.354Z,18.80
2023-05-24T09:32:37.318Z,18.80
2023-05-24T09:36:02.968Z,18.80
2023-05-24T09:39:26.624Z,18.80
2023-05-24T09:43:03.818Z,18.80
2023-05-24T09:46:29.436Z,18.80
2023-05-24T09:49:53.724Z,18.80
2023-05-24T09:53:19.773Z,18.80
2023-05-24T09:56:43.684Z,18.80
2023-05-24T10:00:17.810Z,18.80
2023-05-24T10:03:54.850Z,18.90
2023-05-24T10:07:19.651Z,18.80
2023-05-24T10:10:44.756Z,18.70
2023-05-24T10:14:11.141Z,18.60
2023-05-24T10:17:36.102Z,18.70
2023-05-24T10:21:02.885Z,18.50
2023-05-24T10:24:39.959Z,18.50
2023-05-24T10:28:13.821Z,18.40
2023-05-24T10:31:42.464Z,18.40
2023-05-24T10:35:12.465Z,18.40
2023-05-24T10:38:39.616Z,18.30
2023-05-24T10:42:07.219Z,18.30
2023-05-24T10:45:35.801Z,18.30
2023-05-24T10:49:04.454Z,18.30
2023-05-24T10:52:37.369Z,18.30
2023-05-24T10:56:04.094Z,18.30
2023-05-24T10:59:37.543Z,18.40
2023-05-24T11:03:03.951Z,18.40
2023-05-24T11:06:50.270Z,18.50
2023-05-24T11:10:18.180Z,18.50
2023-05-24T11:13:43.179Z,18.60
2023-05-24T11:17:08.112Z,18.70
2023-05-24T11:20:32.094Z,18.80
2023-05-24T11:23:55.948Z,18.90
2023-05-24T11:27:20.969Z,19.00
2023-05-24T11:30:46.017Z,19.20
2023-05-24T11:34:11.835Z,19.30
2023-05-24T11:37:45.919Z,19.50
2023-05-24T11:41:10.037Z,19.70
2023-05-24T11:44:37.929Z,19.90
2023-05-24T11:48:07.120Z,20.10
2023-05-24T11:51:32.991Z,20.40
2023-05-24T11:54:56.490Z,20.70
2023-05-24T11:58:26.080Z,21.10
2023-05-24T12:01:57.788Z,21.60
2023-05-24T12:05:22.802Z,22.10
2023-05-24T12:08:46.539Z,22.50
2023-05-24T12:12:10.362Z,22.90
2023-05-24T12:15:34.744Z,23.30
2023-05-24T12:19:07.202Z,23.60
2023-05-24T12:22:35.320Z,23.90
2023-05-24T12:26:03.433Z,24.20
2023-05-24T12:29:27.012Z,24.50
2023-05-24T12:32:51.591Z,24.70
2023-05-24T12:36:16.874Z,25.00
2023-05-24T12:39:42.424Z,25.20
2023-05-24T12:43:06.865Z,25.30
2023-05-24T12:46:30.947Z,25.30
2023-05-24T12:49:54.670Z,25.30
2023-05-24T12:53:23.978Z,25.30
2023-05-24T12:56:47.630Z,25.20
2023-05-24T13:03:36.788Z,25.10
2023-05-24T13:07:01.686Z,25.00
2023-05-24T13:10:27.717Z,25.00
2023-05-24T13:13:51.266Z,24.90
2023-05-24T13:17:16.195Z,24.80
2023-05-24T13:20:39.979Z,24.70
2023-05-24T13:24:04.573Z,24.70
2023-05-24T13:27:29.669Z,24.60
2023-05-24T13:30:53.547Z,24.70
2023-05-24T13:34:17.732Z,24.70
2023-05-24T13:37:41.201Z,24.90
2023-05-24T13:41:04.811Z,25.00
2023-05-24T13:44:30.659Z,25.10
2023-05-24T13:47:58.367Z,25.10
2023-05-24T13:51:22.589Z,25.10
2023-05-24T13:54:46.778Z,25.10
2023-05-24T13:58:10.545Z,25.00
2023-05-24T14:01:37.432Z,24.80
2023-05-24T14:05:17.531Z,24.70
2023-05-24T14:08:45.375Z,24.60
2023-05-24T14:12:09.775Z,24.40
2023-05-24T14:15:34.331Z,24.20
2023-05-24T14:18:59.300Z,24.00
2023-05-24T14:22:24.863Z,23.80
2023-05-24T14:25:48.443Z,23.70
2023-05-24T14:29:12.007Z,23.60
2023-05-24T14:32:36.831Z,23.60
2023-05-24T14:36:01.957Z,23.40
2023-05-24T14:39:25.546Z,23.20
2023-05-24T14:42:49.122Z,23.10
2023-05-24T14:46:12.793Z,23.00
2023-05-24T14:49:36.355Z,22.70
2023-05-24T14:53:01.595Z,22.70
2023-05-24T14:56:25.183Z,22.40
2023-05-24T14:59:48.777Z,22.30
2023-05-24T15:03:13.047Z,22.10
2023-05-24T15:06:37.492Z,22.00
2023-05-24T15:10:02.556Z,21.90
2023-05-24T15:13:26.099Z,21.80
2023-05-24T15:16:49.912Z,21.70
2023-05-24T15:20:13.565Z,21.70
2023-05-24T15:23:37.459Z,21.50
2023-05-24T15:27:02.892Z,21.40
2023-05-24T15:30:26.606Z,21.30
2023-05-24T15:33:50.151Z,21.30
2023-05-24T15:37:13.774Z,21.20
2023-05-24T15:40:38.460Z,21.20
2023-05-24T15:44:08.781Z,21.30
2023-05-24T15:47:37.934Z,21.50
2023-05-24T15:51:42.864Z,21.30
2023-05-24T15:54:45.076Z,21.50
2023-05-24T15:58:08.641Z,21.60
2023-05-24T16:01:33.753Z,21.50
2023-05-24T16:04:57.668Z,21.40
2023-05-24T16:08:27.366Z,21.30
2023-05-24T16:11:51.593Z,21.30
2023-05-24T16:15:15.185Z,21.20
2023-05-24T16:18:40.199Z,21.20
2023-05-24T16:22:04.447Z,21.00
2023-05-24T16:25:28.013Z,21.00
2023-05-24T16:28:51.697Z,20.90
2023-05-24T16:32:15.440Z,20.80
2023-05-24T16:35:40.573Z,20.80
2023-05-24T16:39:04.251Z,20.70
2023-05-24T16:42:28.221Z,20.70
2023-05-24T16:45:52.234Z,20.60
2023-05-24T16:49:15.979Z,20.50
2023-05-24T16:52:40.911Z,20.50
2023-05-24T16:56:04.575Z,20.40
2023-05-24T16:59:28.296Z,20.40
2023-05-24T17:02:51.948Z,20.30
2023-05-24T17:06:15.614Z,20.20
2023-05-24T17:09:40.833Z,20.10
2023-05-24T17:13:04.393Z,20.00
2023-05-24T17:16:29.852Z,19.90
2023-05-24T17:19:53.712Z,19.80
2023-05-24T17:23:19.671Z,19.80
2023-05-24T17:26:45.799Z,19.70
2023-05-24T17:30:10.491Z,19.70
2023-05-24T17:33:34.109Z,19.60
2023-05-24T17:36:57.703Z,19.60
2023-05-24T17:40:21.751Z,19.50
2023-05-24T17:43:46.792Z,19.40
2023-05-24T17:47:10.465Z,19.40
2023-05-24T17:50:34.121Z,19.30
2023-05-24T17:53:57.688Z,19.30
2023-05-24T17:57:21.283Z,19.20
2023-05-24T18:00:46.149Z,19.10
2023-05-24T18:04:09.792Z,19.10
2023-05-24T18:07:33.397Z,19.10
2023-05-24T18:10:57.757Z,19.10
2023-05-24T18:14:21.450Z,19.00
2023-05-24T18:17:46.603Z,19.00
2023-05-24T18:21:10.742Z,19.10
2023-05-24T18:24:34.291Z,18.90
2023-05-24T18:27:58.930Z,18.90
2023-05-24T18:31:22.555Z,18.80
2023-05-24T18:34:47.736Z,18.80
2023-05-24T18:38:11.369Z,18.80
2023-05-24T18:41:34.948Z,18.70
2023-05-24T18:44:58.570Z,18.60
2023-05-24T18:48:22.916Z,18.50
2023-05-24T18:51:47.836Z,18.50
2023-05-24T18:55:11.580Z,18.40
2023-05-24T18:58:35.254Z,18.40
2023-05-24T19:02:00.917Z,18.30
2023-05-24T19:05:24.712Z,18.20
2023-05-24T19:08:50.110Z,18.20
2023-05-24T19:12:14.741Z,18.10
2023-05-24T19:15:38.371Z,18.00
2023-05-24T19:19:01.993Z,17.90
2023-05-24T19:22:26.209Z,17.90
2023-05-24T19:25:51.410Z,17.80
2023-05-24T19:29:15.060Z,17.70
2023-05-24T19:32:38.978Z,17.80
2023-05-24T19:36:03.320Z,17.50
2023-05-24T19:39:27.554Z,17.40
2023-05-24T19:42:52.559Z,17.20
2023-05-24T19:49:40.140Z,17.00
2023-05-24T19:53:03.775Z,16.80
2023-05-24T19:56:27.464Z,16.90
2023-05-24T19:59:52.532Z,16.60
2023-05-24T20:03:16.146Z,16.50
2023-05-24T20:06:39.823Z,16.60
2023-05-24T20:10:05.112Z,16.30
2023-05-24T20:13:28.761Z,16.20
2023-05-24T20:16:53.661Z,16.10
2023-05-24T20:20:17.433Z,16.00
2023-05-24T20:23:41.066Z,15.90
2023-05-24T20:27:05.056Z,15.80
2023-05-24T20:30:29.085Z,15.70
2023-05-24T20:33:54.623Z,15.70
2023-05-24T20:37:18.361Z,15.60
2023-05-24T20:40:42.131Z,15.50
2023-05-24T20:44:05.798Z,15.50
2023-05-24T20:47:30.441Z,15.70
2023-05-24T20:50:55.510Z,15.40
2023-05-24T20:54:19.166Z,15.30
2023-05-24T20:57:43.090Z,15.30
2023-05-24T21:05:18.562Z,15.20
2023-05-24T21:08:44.251Z,15.20
2023-05-24T21:12:08.533Z,15.10
2023-05-24T21:15:32.712Z,15.10
2023-05-24T21:18:56.807Z,15.10
2023-05-24T21:22:20.473Z,15.10
2023-05-24T21:25:45.528Z,15.60
2023-05-24T21:29:11.240Z,15.10
2023-05-24T21:32:34.841Z,15.10
2023-05-24T21:35:59.321Z,15.20
2023-05-24T21:39:22.805Z,15.20
2023-05-24T21:42:47.740Z,15.20
2023-05-24T21:46:11.263Z,15.40
2023-05-24T21:49:34.768Z,15.30
2023-05-24T21:52:58.282Z,15.30
2023-05-24T21:56:21.807Z,15.30
2023-05-24T21:59:46.637Z,15.30
2023-05-24T22:03:10.285Z,15.40
2023-05-24T22:06:34.122Z,15.50
2023-05-24T22:09:58.321Z,15.60
2023-05-24T22:13:21.822Z,15.60
2023-05-24T22:16:46.919Z,15.70
2023-05-24T22:20:12.792Z,15.70
2023-05-24T22:23:36.591Z,15.70
2023-05-24T22:27:01.300Z,15.80
2023-05-24T22:30:26.268Z,15.80
2023-05-24T22:33:51.469Z,15.80
2023-05-24T22:37:16.622Z,15.80
2023-05-24T22:40:42.106Z,16.00
2023-05-24T22:44:05.758Z,15.70
2023-05-24T22:47:33.124Z,14.40
2023-05-24T22:50:59.304Z,15.60
2023-05-24T22:54:23.037Z,15.60
2023-05-24T22:57:46.493Z,15.60
2023-05-24T23:01:10.113Z,15.50
2023-05-24T23:04:33.660Z,15.40
2023-05-24T23:07:58.644Z,15.40
2023-05-24T23:11:22.472Z,15.30
2023-05-24T23:14:46.466Z,15.30
2023-05-24T23:18:16.302Z,15.20
2023-05-24T23:21:42.071Z,15.10
2023-05-24T23:25:09.120Z,15.10
2023-05-24T23:28:32.707Z,15.00
2023-05-24T23:31:56.252Z,15.10
2023-05-24T23:35:20.045Z,14.90
2023-05-24T23:38:43.664Z,14.80
2023-05-24T23:42:08.723Z,14.80
2023-05-24T23:45:32.636Z,14.70
2023-05-24T23:48:56.264Z,14.60
2023-05-24T23:52:20.671Z,14.60
2023-05-24T23:55:44.607Z,14.50
2023-05-24T23:59:10.409Z,14.50
